createdAt,value
2018-12-18T00:00:54.152Z,284.58
2018-12-18T00:01:54.083Z,285.15
2018-12-18T00:02:54.085Z,285.91
2018-12-18T00:03:54.085Z,284.60
2018-12-18T00:04:54.064Z,284.68
2018-12-18T00:05:54.048Z,284.92
2018-12-18T00:06:54.061Z,284.98
2018-12-18T00:07:54.041Z,284.69
2018-12-18T00:08:54.022Z,284.76
2018-12-18T00:09:54.002Z,284.60
2018-12-18T00:10:54.001Z,285.01
2018-12-18T00:11:59.315Z,284.49
2018-12-18T00:12:54.979Z,284.24
2018-12-18T00:13:53.963Z,284.42
2018-12-18T00:14:53.973Z,284.00
2018-12-18T00:15:53.936Z,284.42
2018-12-18T00:16:53.927Z,285.06
2018-12-18T00:17:53.923Z,284.74
2018-12-18T00:18:53.907Z,284.46
2018-12-18T00:19:53.910Z,284.93
2018-12-18T00:20:53.882Z,284.88
2018-12-18T00:21:53.875Z,285.02
2018-12-18T00:22:53.885Z,284.87
2018-12-18T00:23:53.845Z,284.57
2018-12-18T00:24:53.846Z,284.58
2018-12-18T00:25:53.835Z,284.70
2018-12-18T00:26:53.850Z,284.14
2018-12-18T00:27:53.811Z,284.03
2018-12-18T00:28:53.802Z,284.33
2018-12-18T00:29:53.783Z,284.95
2018-12-18T00:30:53.790Z,284.69
2018-12-18T00:31:53.780Z,284.61
2018-12-18T00:32:53.760Z,284.52
2018-12-18T00:33:53.751Z,284.29
2018-12-18T00:34:53.760Z,284.76
2018-12-18T00:35:53.724Z,284.31
2018-12-18T00:36:53.734Z,284.64
2018-12-18T00:37:53.700Z,284.69
2018-12-18T00:38:53.689Z,283.91
2018-12-18T00:39:53.678Z,284.42
2018-12-18T00:40:53.674Z,284.90
2018-12-18T00:41:53.666Z,285.04
2018-12-18T00:42:53.649Z,284.77
2018-12-18T00:43:53.645Z,284.82
2018-12-18T00:44:53.627Z,284.14
2018-12-18T00:45:53.629Z,284.50
2018-12-18T00:46:53.608Z,284.20
2018-12-18T00:47:53.607Z,284.46
2018-12-18T00:48:53.598Z,284.95
2018-12-18T00:49:53.571Z,284.70
2018-12-18T00:50:53.581Z,284.33
2018-12-18T00:51:53.559Z,284.81
2018-12-18T00:52:53.533Z,284.69
2018-12-18T00:53:53.533Z,284.54
2018-12-18T00:54:53.559Z,283.78
2018-12-18T00:55:53.507Z,284.75
2018-12-18T00:56:53.496Z,284.47
2018-12-18T00:57:53.489Z,284.76
2018-12-18T00:58:53.477Z,284.72
2018-12-18T00:59:53.521Z,284.37
2018-12-18T01:00:53.472Z,285.35
2018-12-18T01:01:53.455Z,284.70
2018-12-18T01:02:53.441Z,284.47
2018-12-18T01:03:53.429Z,284.94
2018-12-18T01:04:53.416Z,284.80
2018-12-18T01:05:53.404Z,285.03
2018-12-18T01:06:53.388Z,285.14
2018-12-18T01:07:53.588Z,284.63
2018-12-18T01:08:53.366Z,284.50
2018-12-18T01:09:53.368Z,284.15
2018-12-18T01:10:53.416Z,284.40
2018-12-18T01:11:53.358Z,284.35
2018-12-18T01:12:53.324Z,284.20
2018-12-18T01:13:53.314Z,284.70
2018-12-18T01:14:53.306Z,284.70
2018-12-18T01:15:53.291Z,284.27
2018-12-18T01:16:53.293Z,284.54
2018-12-18T01:17:53.281Z,284.23
2018-12-18T01:18:53.260Z,284.73
2018-12-18T01:19:53.247Z,284.98
2018-12-18T01:20:53.276Z,284.41
2018-12-18T01:21:53.243Z,284.65
2018-12-18T01:22:53.235Z,284.38
2018-12-18T01:23:53.263Z,284.82
2018-12-18T01:24:53.212Z,284.60
2018-12-18T01:25:53.208Z,284.91
2018-12-18T01:26:53.183Z,284.42
2018-12-18T01:27:53.201Z,285.08
2018-12-18T01:28:53.182Z,284.59
2018-12-18T01:29:53.173Z,284.63
2018-12-18T01:30:53.140Z,284.60
2018-12-18T01:31:53.135Z,284.40
2018-12-18T01:32:53.119Z,284.20
2018-12-18T01:33:59.158Z,284.60
2018-12-18T01:34:54.096Z,284.72
2018-12-18T01:35:53.127Z,284.24
2018-12-18T01:36:53.092Z,284.64
2018-12-18T01:37:53.647Z,284.63
2018-12-18T01:38:53.063Z,284.88
2018-12-18T01:39:53.080Z,284.65
2018-12-18T01:40:53.088Z,284.38
2018-12-18T01:41:53.025Z,284.23
2018-12-18T01:42:53.017Z,284.85
2018-12-18T01:43:53.015Z,284.73
2018-12-18T01:44:52.987Z,284.37
2018-12-18T01:45:52.987Z,284.21
2018-12-18T01:46:52.978Z,284.62
2018-12-18T01:47:52.955Z,284.55
2018-12-18T01:48:53.033Z,284.97
2018-12-18T01:49:52.977Z,284.74
2018-12-18T01:50:52.925Z,284.82
2018-12-18T01:51:52.937Z,284.09
2018-12-18T01:52:53.624Z,284.31
2018-12-18T01:53:52.891Z,284.52
2018-12-18T01:54:52.903Z,284.87
2018-12-18T01:55:52.876Z,285.02
2018-12-18T01:56:52.873Z,284.51
2018-12-18T01:57:52.879Z,284.47
2018-12-18T01:58:52.845Z,284.48
2018-12-18T01:59:55.142Z,285.02
2018-12-18T02:00:52.832Z,283.95
2018-12-18T02:01:52.824Z,283.88
2018-12-18T02:02:52.809Z,284.73
2018-12-18T02:03:56.077Z,284.60
2018-12-18T02:04:52.869Z,283.90
2018-12-18T02:05:52.791Z,284.37
2018-12-18T02:06:52.770Z,284.98
2018-12-18T02:07:52.760Z,285.00
2018-12-18T02:08:52.748Z,284.24
2018-12-18T02:09:52.734Z,284.48
2018-12-18T02:10:52.721Z,284.60
2018-12-18T02:11:52.712Z,284.81
2018-12-18T02:12:52.713Z,284.35
2018-12-18T02:13:52.686Z,284.37
2018-12-18T02:14:52.676Z,285.17
2018-12-18T02:15:54.077Z,284.54
2018-12-18T02:16:53.578Z,284.17
2018-12-18T02:17:52.657Z,283.84
2018-12-18T02:18:52.643Z,284.47
2018-12-18T02:19:52.623Z,284.76
2018-12-18T02:20:52.621Z,284.94
2018-12-18T02:21:52.604Z,284.71
2018-12-18T02:22:52.582Z,284.51
2018-12-18T02:23:52.578Z,284.56
2018-12-18T02:24:52.564Z,284.92
2018-12-18T02:25:52.560Z,285.03
2018-12-18T02:26:52.556Z,283.81
2018-12-18T02:27:52.532Z,284.36
2018-12-18T02:28:52.519Z,284.40
2018-12-18T02:29:52.523Z,284.27
2018-12-18T02:30:52.508Z,283.97
2018-12-18T02:31:52.506Z,283.93
2018-12-18T02:32:52.491Z,284.65
2018-12-18T02:33:52.479Z,284.77
2018-12-18T02:34:52.459Z,284.38
2018-12-18T02:35:52.456Z,284.31
2018-12-18T02:36:52.441Z,284.47
2018-12-18T02:37:52.426Z,284.76
2018-12-18T02:38:52.415Z,284.99
2018-12-18T02:39:52.404Z,284.47
2018-12-18T02:40:52.396Z,284.56
2018-12-18T02:41:52.394Z,284.60
2018-12-18T02:42:52.375Z,284.39
2018-12-18T02:43:52.367Z,284.22
2018-12-18T02:44:52.363Z,284.33
2018-12-18T02:45:52.340Z,283.79
2018-12-18T02:46:52.333Z,284.35
2018-12-18T02:47:52.315Z,284.56
2018-12-18T02:48:52.316Z,284.70
2018-12-18T02:49:52.308Z,284.75
2018-12-18T02:50:52.287Z,284.51
2018-12-18T02:51:52.291Z,284.67
2018-12-18T02:52:52.272Z,284.41
2018-12-18T02:53:52.253Z,284.20
2018-12-18T02:54:52.254Z,284.82
2018-12-18T02:55:52.240Z,284.67
2018-12-18T02:56:52.225Z,284.37
2018-12-18T02:57:52.213Z,284.18
2018-12-18T02:58:52.205Z,284.46
2018-12-18T02:59:52.193Z,284.28
2018-12-18T03:00:52.195Z,284.43
2018-12-18T03:01:52.174Z,283.95
2018-12-18T03:02:52.169Z,284.01
2018-12-18T03:03:52.149Z,284.35
2018-12-18T03:04:52.147Z,284.54
2018-12-18T03:05:52.160Z,284.00
2018-12-18T03:06:52.126Z,284.25
2018-12-18T03:07:52.110Z,284.82
2018-12-18T03:08:52.097Z,285.05
2018-12-18T03:09:52.084Z,284.25
2018-12-18T03:10:52.087Z,284.26
2018-12-18T03:11:52.066Z,284.28
2018-12-18T03:12:52.080Z,284.24
2018-12-18T03:13:52.046Z,284.48
2018-12-18T03:14:52.038Z,284.52
2018-12-18T03:15:52.028Z,285.06
2018-12-18T03:16:52.650Z,284.50
2018-12-18T03:17:52.006Z,284.26
2018-12-18T03:18:52.014Z,284.42
2018-12-18T03:19:51.994Z,285.30
2018-12-18T03:20:51.972Z,284.40
2018-12-18T03:21:52.002Z,284.66
2018-12-18T03:22:51.982Z,284.42
2018-12-18T03:23:51.950Z,284.25
2018-12-18T03:24:51.965Z,284.20
2018-12-18T03:25:51.973Z,284.71
2018-12-18T03:26:51.913Z,284.85
2018-12-18T03:27:51.954Z,283.95
2018-12-18T03:28:51.904Z,284.79
2018-12-18T03:29:51.876Z,284.09
2018-12-18T03:30:51.861Z,284.19
2018-12-18T03:31:51.862Z,284.23
2018-12-18T03:32:51.848Z,284.08
2018-12-18T03:33:51.830Z,284.37
2018-12-18T03:34:51.833Z,284.24
2018-12-18T03:35:51.816Z,284.60
2018-12-18T03:36:51.816Z,284.76
2018-12-18T03:37:51.789Z,284.36
2018-12-18T03:38:51.779Z,284.35
2018-12-18T03:39:51.774Z,284.41
2018-12-18T03:40:51.790Z,284.86
2018-12-18T03:41:51.753Z,284.34
2018-12-18T03:42:51.743Z,284.52
2018-12-18T03:43:51.770Z,284.57
2018-12-18T03:44:51.714Z,284.75
2018-12-18T03:45:53.102Z,283.83
2018-12-18T03:46:51.690Z,283.82
2018-12-18T03:47:51.677Z,284.38
2018-12-18T03:48:51.679Z,284.07
2018-12-18T03:49:51.663Z,284.21
2018-12-18T03:50:51.655Z,284.15
2018-12-18T03:51:51.667Z,284.25
2018-12-18T03:52:51.629Z,284.77
2018-12-18T03:53:51.629Z,284.53
2018-12-18T03:54:51.608Z,284.35
2018-12-18T03:55:51.598Z,283.52
2018-12-18T03:56:51.597Z,284.12
2018-12-18T03:57:51.578Z,284.19
2018-12-18T03:58:51.569Z,284.76
2018-12-18T03:59:51.563Z,284.59
2018-12-18T04:00:51.539Z,284.27
2018-12-18T04:01:51.531Z,284.08
2018-12-18T04:02:51.549Z,284.07
2018-12-18T04:03:51.531Z,284.56
2018-12-18T04:04:51.504Z,284.25
2018-12-18T04:05:51.491Z,284.40
2018-12-18T04:06:51.481Z,284.39
2018-12-18T04:07:51.465Z,284.10
2018-12-18T04:08:51.462Z,284.49
2018-12-18T04:09:51.460Z,284.78
2018-12-18T04:10:51.439Z,284.19
2018-12-18T04:11:51.425Z,284.37
2018-12-18T04:12:51.416Z,284.63
2018-12-18T04:13:51.405Z,284.64
2018-12-18T04:14:51.419Z,284.39
2018-12-18T04:15:51.387Z,283.74
2018-12-18T04:16:51.373Z,284.98
2018-12-18T04:17:51.418Z,284.62
2018-12-18T04:18:51.353Z,283.48
2018-12-18T04:19:51.342Z,284.81
2018-12-18T04:20:51.332Z,284.16
2018-12-18T04:21:51.330Z,284.33
2018-12-18T04:22:51.313Z,284.58
2018-12-18T04:23:51.315Z,284.17
2018-12-18T04:24:51.292Z,284.01
2018-12-18T04:25:51.280Z,284.61
2018-12-18T04:26:51.278Z,284.20
2018-12-18T04:27:51.259Z,284.49
2018-12-18T04:28:51.248Z,284.68
2018-12-18T04:29:51.236Z,284.42
2018-12-18T04:30:51.220Z,284.37
2018-12-18T04:31:51.209Z,283.97
2018-12-18T04:32:51.221Z,284.04
2018-12-18T04:33:51.194Z,284.46
2018-12-18T04:34:51.206Z,284.26
2018-12-18T04:35:51.167Z,284.55
2018-12-18T04:36:51.162Z,284.28
2018-12-18T04:37:51.195Z,284.32
2018-12-18T04:38:51.140Z,284.67
2018-12-18T04:39:51.177Z,284.25
2018-12-18T04:40:51.155Z,283.96
2018-12-18T04:41:51.110Z,284.90
2018-12-18T04:42:51.105Z,284.18
2018-12-18T04:43:51.089Z,284.48
2018-12-18T04:44:51.080Z,284.41
2018-12-18T04:45:51.079Z,284.77
2018-12-18T04:46:51.047Z,284.75
2018-12-18T04:47:51.043Z,284.46
2018-12-18T04:48:51.039Z,284.83
2018-12-18T04:49:51.027Z,284.76
2018-12-18T04:50:51.673Z,284.04
2018-12-18T04:51:51.013Z,284.77
2018-12-18T04:52:51.035Z,284.64
2018-12-18T04:53:50.988Z,284.68
2018-12-18T04:54:50.964Z,283.96
2018-12-18T04:55:50.964Z,284.30
2018-12-18T04:56:50.952Z,284.21
2018-12-18T04:57:50.946Z,284.48
2018-12-18T04:58:50.942Z,284.37
2018-12-18T04:59:50.935Z,284.59
2018-12-18T05:00:50.903Z,284.11
2018-12-18T05:01:50.895Z,284.73
2018-12-18T05:02:50.891Z,284.12
2018-12-18T05:03:50.875Z,284.19
2018-12-18T05:04:50.875Z,284.62
2018-12-18T05:05:50.854Z,284.54
2018-12-18T05:06:51.720Z,284.47
2018-12-18T05:07:50.845Z,284.48
2018-12-18T05:08:50.831Z,284.43
2018-12-18T05:09:50.809Z,284.25
2018-12-18T05:10:50.801Z,284.80
2018-12-18T05:11:50.803Z,284.68
2018-12-18T05:12:50.784Z,285.05
2018-12-18T05:13:50.771Z,284.98
2018-12-18T05:14:50.756Z,284.58
2018-12-18T05:15:50.748Z,284.97
2018-12-18T05:16:50.742Z,284.64
2018-12-18T05:17:50.730Z,284.66
2018-12-18T05:18:50.726Z,284.97
2018-12-18T05:19:50.704Z,285.00
2018-12-18T05:20:50.719Z,284.98
2018-12-18T05:21:50.683Z,284.17
2018-12-18T05:22:50.683Z,284.57
2018-12-18T05:23:50.664Z,284.55
2018-12-18T05:24:50.655Z,284.27
2018-12-18T05:25:50.646Z,284.65
2018-12-18T05:26:50.633Z,284.83
2018-12-18T05:27:50.618Z,284.37
2018-12-18T05:28:50.610Z,284.57
2018-12-18T05:29:50.598Z,284.12
2018-12-18T05:30:50.599Z,284.40
2018-12-18T05:31:50.585Z,284.44
2018-12-18T05:32:50.566Z,284.42
2018-12-18T05:33:50.552Z,283.72
2018-12-18T05:34:56.353Z,283.73
2018-12-18T05:35:51.534Z,284.00
2018-12-18T05:36:50.523Z,283.43
2018-12-18T05:37:50.519Z,283.53
2018-12-18T05:38:50.508Z,283.71
2018-12-18T05:39:50.493Z,284.02
2018-12-18T05:40:50.487Z,283.04
2018-12-18T05:41:50.483Z,282.83
2018-12-18T05:42:50.473Z,282.76
2018-12-18T05:43:50.449Z,283.14
2018-12-18T05:44:50.445Z,282.57
2018-12-18T05:45:50.439Z,283.28
2018-12-18T05:46:50.414Z,283.52
2018-12-18T05:47:50.412Z,282.92
2018-12-18T05:48:50.395Z,282.92
2018-12-18T05:49:50.381Z,282.75
2018-12-18T05:50:50.379Z,283.28
2018-12-18T05:51:50.365Z,282.18
2018-12-18T05:52:50.359Z,282.54
2018-12-18T05:53:50.372Z,283.28
2018-12-18T05:54:50.334Z,283.00
2018-12-18T05:55:51.164Z,282.30
2018-12-18T05:56:50.321Z,281.84
2018-12-18T05:57:50.304Z,282.85
2018-12-18T05:58:50.287Z,281.65
2018-12-18T05:59:50.290Z,282.34
2018-12-18T06:00:50.273Z,282.02
2018-12-18T06:01:50.268Z,282.57
2018-12-18T06:02:50.257Z,281.68
2018-12-18T06:03:50.243Z,281.79
2018-12-18T06:04:50.229Z,281.94
2018-12-18T06:05:50.215Z,281.80
2018-12-18T06:06:50.212Z,281.61
2018-12-18T06:07:50.192Z,281.05
2018-12-18T06:08:50.187Z,281.58
2018-12-18T06:09:50.177Z,281.65
2018-12-18T06:10:50.163Z,281.23
2018-12-18T06:11:50.154Z,281.38
2018-12-18T06:12:50.149Z,281.37
2018-12-18T06:13:50.130Z,280.78
2018-12-18T06:14:50.144Z,282.12
2018-12-18T06:15:50.116Z,281.21
2018-12-18T06:16:50.115Z,282.10
2018-12-18T06:17:50.091Z,281.41
2018-12-18T06:18:50.079Z,280.68
2018-12-18T06:19:50.065Z,280.86
2018-12-18T06:20:50.070Z,280.48
2018-12-18T06:21:50.050Z,280.60
2018-12-18T06:22:50.061Z,280.98
2018-12-18T06:23:50.025Z,280.69
2018-12-18T06:24:50.022Z,280.15
2018-12-18T06:25:50.006Z,280.77
2018-12-18T06:26:50.000Z,280.80
2018-12-18T06:27:49.994Z,280.67
2018-12-18T06:28:49.969Z,280.70
2018-12-18T06:29:49.970Z,280.71
2018-12-18T06:30:49.960Z,280.85
2018-12-18T06:31:49.946Z,280.64
2018-12-18T06:32:49.944Z,281.04
2018-12-18T06:33:49.924Z,280.66
2018-12-18T06:34:49.911Z,279.77
2018-12-18T06:35:49.911Z,281.14
2018-12-18T06:36:49.906Z,280.72
2018-12-18T06:37:49.877Z,280.64
2018-12-18T06:38:49.913Z,280.59
2018-12-18T06:39:49.861Z,279.98
2018-12-18T06:40:49.870Z,280.81
2018-12-18T06:41:49.853Z,281.13
2018-12-18T06:42:49.834Z,280.67
2018-12-18T06:43:49.851Z,280.37
2018-12-18T06:44:49.802Z,280.76
2018-12-18T06:45:49.795Z,280.98
2018-12-18T06:46:49.781Z,280.37
2018-12-18T06:47:49.776Z,281.22
2018-12-18T06:48:49.765Z,280.23
2018-12-18T06:49:49.749Z,280.15
2018-12-18T06:50:49.739Z,279.78
2018-12-18T06:51:49.737Z,280.73
2018-12-18T06:52:49.726Z,280.80
2018-12-18T06:53:49.720Z,280.22
2018-12-18T06:54:49.711Z,280.21
2018-12-18T06:55:49.687Z,280.46
2018-12-18T06:56:49.676Z,280.67
2018-12-18T06:57:49.674Z,280.98
2018-12-18T06:58:49.678Z,279.93
2018-12-18T06:59:49.652Z,280.50
2018-12-18T07:00:49.630Z,280.01
2018-12-18T07:01:49.640Z,280.32
2018-12-18T07:02:49.646Z,280.32
2018-12-18T07:03:49.604Z,279.55
2018-12-18T07:04:49.594Z,280.08
2018-12-18T07:05:49.590Z,280.75
2018-12-18T07:06:49.582Z,280.33
2018-12-18T07:07:49.570Z,280.47
2018-12-18T07:08:49.555Z,280.16
2018-12-18T07:09:49.542Z,280.98
2018-12-18T07:10:49.538Z,280.26
2018-12-18T07:11:50.181Z,280.19
2018-12-18T07:12:49.521Z,280.22
2018-12-18T07:13:49.516Z,280.14
2018-12-18T07:14:49.497Z,280.50
2018-12-18T07:15:49.485Z,280.99
2018-12-18T07:16:49.477Z,280.87
2018-12-18T07:17:49.466Z,279.89
2018-12-18T07:18:49.445Z,280.62
2018-12-18T07:19:49.436Z,281.10
2018-12-18T07:20:49.433Z,280.77
2018-12-18T07:21:49.460Z,279.78
2018-12-18T07:22:49.416Z,280.08
2018-12-18T07:23:49.397Z,279.84
2018-12-18T07:24:49.374Z,280.65
2018-12-18T07:25:49.376Z,280.26
2018-12-18T07:26:49.371Z,280.69
2018-12-18T07:27:49.348Z,280.06
2018-12-18T07:28:50.009Z,281.27
2018-12-18T07:29:49.330Z,280.75
2018-12-18T07:30:49.310Z,280.89
2018-12-18T07:31:49.327Z,281.11
2018-12-18T07:32:49.313Z,280.74
2018-12-18T07:33:49.288Z,280.73
2018-12-18T07:34:49.273Z,280.92
2018-12-18T07:35:49.268Z,280.22
2018-12-18T07:36:49.265Z,281.48
2018-12-18T07:37:49.270Z,280.26
2018-12-18T07:38:49.236Z,280.74
2018-12-18T07:39:49.234Z,280.38
2018-12-18T07:40:49.217Z,282.24
2018-12-18T07:41:49.209Z,279.35
2018-12-18T07:42:49.197Z,279.69
2018-12-18T07:43:49.191Z,280.56
2018-12-18T07:44:49.276Z,279.17
2018-12-18T07:45:49.214Z,280.27
2018-12-18T07:46:49.152Z,280.79
2018-12-18T07:47:49.146Z,280.71
2018-12-18T07:48:49.144Z,280.39
2018-12-18T07:49:49.122Z,280.36
2018-12-18T07:50:49.127Z,281.62
2018-12-18T07:51:49.116Z,281.63
2018-12-18T07:52:49.088Z,278.55
2018-12-18T07:53:49.078Z,286.62
2018-12-18T07:54:49.124Z,281.30
2018-12-18T07:55:49.065Z,282.01
2018-12-18T07:56:49.040Z,282.43
2018-12-18T07:57:49.034Z,282.67
2018-12-18T07:58:49.032Z,282.40
2018-12-18T07:59:49.017Z,283.00
2018-12-18T08:00:49.003Z,283.73
2018-12-18T08:01:48.990Z,283.78
2018-12-18T08:02:49.002Z,283.64
2018-12-18T08:03:48.996Z,284.36
2018-12-18T08:04:49.009Z,283.67
2018-12-18T08:05:48.947Z,285.13
2018-12-18T08:06:48.949Z,284.52
2018-12-18T08:07:48.944Z,284.08
2018-12-18T08:08:48.913Z,281.70
2018-12-18T08:09:48.921Z,284.05
2018-12-18T08:10:48.894Z,285.38
2018-12-18T08:11:48.878Z,284.95
2018-12-18T08:12:48.877Z,284.55
2018-12-18T08:13:48.861Z,284.68
2018-12-18T08:14:48.869Z,284.98
2018-12-18T08:15:48.843Z,285.46
2018-12-18T08:16:48.837Z,284.71
2018-12-18T08:17:48.822Z,284.70
2018-12-18T08:18:48.820Z,285.01
2018-12-18T08:19:48.803Z,285.00
2018-12-18T08:20:48.785Z,284.67
2018-12-18T08:21:48.788Z,285.08
2018-12-18T08:22:48.771Z,285.42
2018-12-18T08:23:48.768Z,284.82
2018-12-18T08:24:48.771Z,284.90
2018-12-18T08:25:48.781Z,284.73
2018-12-18T08:26:49.475Z,284.69
2018-12-18T08:27:48.729Z,284.50
2018-12-18T08:28:48.706Z,283.89
2018-12-18T08:29:48.702Z,283.95
2018-12-18T08:30:48.687Z,284.53
2018-12-18T08:31:48.671Z,284.51
2018-12-18T08:32:48.657Z,284.21
2018-12-18T08:33:48.755Z,284.10
2018-12-18T08:34:48.754Z,280.79
2018-12-18T08:35:48.640Z,286.02
2018-12-18T08:36:48.629Z,284.98
2018-12-18T08:37:48.958Z,284.97
2018-12-18T08:38:48.621Z,283.40
2018-12-18T08:39:48.619Z,284.44
2018-12-18T08:40:48.599Z,283.75
2018-12-18T08:41:48.813Z,282.95
2018-12-18T08:42:48.572Z,282.34
2018-12-18T08:43:48.583Z,282.48
2018-12-18T08:44:48.538Z,285.50
2018-12-18T08:45:48.540Z,283.06
2018-12-18T08:46:48.514Z,282.79
2018-12-18T08:47:48.855Z,283.88
2018-12-18T08:48:48.499Z,284.31
2018-12-18T08:49:48.483Z,284.30
2018-12-18T08:50:48.476Z,284.30
2018-12-18T08:51:48.475Z,284.58
2018-12-18T08:52:48.537Z,284.93
2018-12-18T08:53:48.466Z,284.48
2018-12-18T08:54:48.499Z,285.43
2018-12-18T08:55:48.424Z,285.64
2018-12-18T08:56:48.423Z,285.52
2018-12-18T08:57:48.395Z,285.58
2018-12-18T08:58:48.406Z,285.09
2018-12-18T08:59:48.388Z,285.85
2018-12-18T09:00:48.377Z,286.08
2018-12-18T09:01:48.371Z,285.74
2018-12-18T09:02:48.354Z,284.56
2018-12-18T09:03:48.349Z,285.63
2018-12-18T09:04:48.343Z,286.08
2018-12-18T09:05:48.339Z,285.79
2018-12-18T09:06:48.330Z,285.85
2018-12-18T09:07:48.333Z,286.47
2018-12-18T09:08:48.797Z,285.79
2018-12-18T09:09:48.289Z,285.40
2018-12-18T09:10:48.736Z,286.33
2018-12-18T09:11:48.280Z,286.30
2018-12-18T09:12:48.264Z,286.05
2018-12-18T09:13:48.258Z,285.52
2018-12-18T09:14:48.229Z,285.45
2018-12-18T09:15:48.223Z,286.07
2018-12-18T09:16:48.217Z,285.13
2018-12-18T09:17:48.211Z,287.65
2018-12-18T09:18:48.194Z,285.30
2018-12-18T09:19:48.177Z,285.19
2018-12-18T09:20:48.164Z,284.32
2018-12-18T09:21:48.177Z,285.08
2018-12-18T09:22:48.146Z,284.90
2018-12-18T09:23:48.180Z,285.60
2018-12-18T09:24:48.137Z,284.83
2018-12-18T09:25:48.148Z,284.62
2018-12-18T09:26:48.107Z,284.89
2018-12-18T09:27:48.088Z,284.64
2018-12-18T09:28:48.095Z,284.73
2018-12-18T09:29:48.140Z,284.25
2018-12-18T09:30:48.054Z,284.13
2018-12-18T09:31:48.515Z,284.57
2018-12-18T09:32:48.040Z,284.60
2018-12-18T09:33:48.038Z,284.83
2018-12-18T09:34:48.018Z,284.84
2018-12-18T09:35:49.818Z,284.37
2018-12-18T09:36:48.011Z,281.16
2018-12-18T09:37:48.003Z,283.84
2018-12-18T09:38:48.475Z,283.51
2018-12-18T09:39:47.961Z,285.80
2018-12-18T09:40:47.982Z,284.08
2018-12-18T09:41:47.941Z,284.23
2018-12-18T09:42:47.983Z,284.86
2018-12-18T09:43:47.945Z,284.09
2018-12-18T09:44:47.927Z,284.00
2018-12-18T09:45:47.927Z,284.59
2018-12-18T09:46:47.914Z,284.43
2018-12-18T09:47:48.032Z,284.03
2018-12-18T09:48:47.871Z,283.78
2018-12-18T09:49:47.854Z,284.18
2018-12-18T09:50:47.859Z,284.02
2018-12-18T09:51:47.839Z,283.79
2018-12-18T09:52:47.822Z,284.30
2018-12-18T09:53:47.822Z,284.15
2018-12-18T09:54:47.954Z,284.28
2018-12-18T09:55:47.889Z,283.88
2018-12-18T09:56:47.801Z,283.91
2018-12-18T09:57:47.781Z,284.27
2018-12-18T09:58:47.749Z,283.97
2018-12-18T09:59:47.747Z,284.35
2018-12-18T10:00:47.746Z,283.63
2018-12-18T10:01:47.735Z,283.71
2018-12-18T10:02:47.793Z,284.52
2018-12-18T10:03:47.715Z,283.42
2018-12-18T10:04:47.751Z,283.54
2018-12-18T10:05:47.679Z,283.92
2018-12-18T10:06:47.678Z,283.95
2018-12-18T10:07:47.652Z,283.86
2018-12-18T10:08:47.653Z,283.68
2018-12-18T10:09:47.655Z,284.01
2018-12-18T10:10:47.629Z,282.95
2018-12-18T10:11:47.619Z,283.86
2018-12-18T10:12:47.602Z,283.80
2018-12-18T10:13:47.661Z,283.79
2018-12-18T10:14:47.662Z,283.32
2018-12-18T10:15:47.602Z,283.84
2018-12-18T10:16:47.590Z,283.04
2018-12-18T10:17:47.548Z,282.57
2018-12-18T10:18:48.887Z,284.08
2018-12-18T10:19:47.540Z,283.58
2018-12-18T10:20:47.520Z,283.92
2018-12-18T10:21:47.505Z,283.24
2018-12-18T10:22:47.609Z,283.73
2018-12-18T10:23:47.491Z,283.50
2018-12-18T10:24:47.478Z,283.29
2018-12-18T10:25:47.481Z,283.42
2018-12-18T10:26:47.467Z,282.53
2018-12-18T10:27:47.498Z,283.51
2018-12-18T10:28:47.435Z,283.61
2018-12-18T10:29:47.443Z,282.82
2018-12-18T10:30:47.415Z,283.77
2018-12-18T10:31:47.406Z,283.12
2018-12-18T10:32:47.404Z,278.05
2018-12-18T10:33:47.377Z,283.09
2018-12-18T10:34:47.383Z,283.30
2018-12-18T10:35:47.428Z,284.44
2018-12-18T10:36:47.359Z,283.49
2018-12-18T10:37:47.349Z,283.80
2018-12-18T10:38:47.373Z,283.35
2018-12-18T10:39:47.408Z,283.18
2018-12-18T10:40:47.318Z,284.20
2018-12-18T10:41:47.312Z,284.02
2018-12-18T10:42:47.298Z,283.23
2018-12-18T10:43:47.298Z,283.84
2018-12-18T10:44:47.305Z,283.72
2018-12-18T10:45:47.264Z,283.57
2018-12-18T10:46:47.244Z,283.13
2018-12-18T10:47:47.247Z,283.39
2018-12-18T10:48:47.247Z,283.62
2018-12-18T10:49:47.319Z,283.30
2018-12-18T10:50:47.213Z,283.41
2018-12-18T10:51:47.206Z,283.10
2018-12-18T10:52:47.187Z,283.37
2018-12-18T10:53:47.199Z,283.23
2018-12-18T10:54:47.171Z,283.01
2018-12-18T10:55:47.173Z,283.22
2018-12-18T10:56:47.178Z,282.89
2018-12-18T10:57:47.165Z,282.62
2018-12-18T10:58:47.138Z,282.77
2018-12-18T10:59:47.113Z,282.52
2018-12-18T11:00:47.134Z,282.75
2018-12-18T11:01:47.123Z,283.48
2018-12-18T11:02:47.093Z,282.96
2018-12-18T11:03:47.075Z,282.83
2018-12-18T11:04:47.067Z,282.74
2018-12-18T11:05:47.082Z,283.20
2018-12-18T11:06:47.075Z,283.12
2018-12-18T11:07:47.074Z,282.74
2018-12-18T11:08:47.057Z,283.18
2018-12-18T11:09:47.009Z,282.60
2018-12-18T11:10:47.006Z,282.39
2018-12-18T11:11:47.036Z,282.38
2018-12-18T11:12:47.002Z,282.61
2018-12-18T11:13:47.047Z,282.30
2018-12-18T11:14:47.030Z,282.17
2018-12-18T11:15:46.974Z,282.95
2018-12-18T11:16:47.011Z,282.21
2018-12-18T11:17:46.929Z,281.83
2018-12-18T11:18:46.923Z,282.88
2018-12-18T11:19:46.945Z,282.23
2018-12-18T11:20:46.936Z,281.92
2018-12-18T11:21:46.893Z,282.56
2018-12-18T11:22:46.885Z,282.56
2018-12-18T11:23:46.864Z,282.60
2018-12-18T11:24:46.871Z,282.57
2018-12-18T11:25:46.856Z,282.14
2018-12-18T11:26:47.887Z,282.52
2018-12-18T11:27:46.822Z,282.30
2018-12-18T11:28:46.890Z,283.07
2018-12-18T11:29:46.814Z,282.04
2018-12-18T11:30:46.819Z,282.68
2018-12-18T11:31:46.782Z,282.25
2018-12-18T11:32:46.768Z,282.76
2018-12-18T11:33:46.769Z,282.36
2018-12-18T11:34:46.758Z,282.01
2018-12-18T11:35:46.736Z,281.75
2018-12-18T11:36:46.731Z,282.29
2018-12-18T11:37:46.720Z,281.70
2018-12-18T11:38:46.702Z,281.62
2018-12-18T11:39:46.694Z,281.48
2018-12-18T11:40:46.691Z,281.29
2018-12-18T11:41:46.694Z,282.06
2018-12-18T11:42:46.674Z,281.91
2018-12-18T11:43:46.655Z,281.86
2018-12-18T11:44:46.638Z,282.15
2018-12-18T11:45:46.628Z,282.26
2018-12-18T11:46:46.696Z,281.67
2018-12-18T11:47:46.708Z,281.62
2018-12-18T11:48:46.602Z,282.33
2018-12-18T11:49:46.602Z,281.62
2018-12-18T11:50:46.587Z,282.09
2018-12-18T11:51:46.572Z,282.05
2018-12-18T11:52:46.567Z,282.02
2018-12-18T11:53:46.552Z,281.26
2018-12-18T11:54:46.553Z,282.45
2018-12-18T11:55:46.529Z,281.39
2018-12-18T11:56:46.523Z,281.35
2018-12-18T11:57:46.513Z,281.68
2018-12-18T11:58:46.494Z,281.96
2018-12-18T11:59:46.499Z,281.46
2018-12-18T12:00:46.466Z,281.94
2018-12-18T12:01:46.464Z,281.91
2018-12-18T12:02:46.470Z,281.66
2018-12-18T12:03:46.446Z,281.41
2018-12-18T12:04:46.462Z,282.00
2018-12-18T12:05:46.432Z,282.43
2018-12-18T12:06:46.409Z,281.49
2018-12-18T12:07:46.405Z,282.27
2018-12-18T12:08:46.394Z,281.19
2018-12-18T12:09:46.423Z,282.04
2018-12-18T12:10:46.439Z,282.62
2018-12-18T12:11:46.399Z,281.56
2018-12-18T12:12:46.370Z,282.16
2018-12-18T12:13:46.346Z,282.17
2018-12-18T12:14:46.358Z,281.37
2018-12-18T12:15:46.315Z,281.57
2018-12-18T12:16:46.352Z,281.64
2018-12-18T12:17:46.359Z,281.88
2018-12-18T12:18:46.292Z,281.58
2018-12-18T12:19:46.278Z,281.04
2018-12-18T12:20:46.271Z,281.44
2018-12-18T12:21:46.253Z,282.17
2018-12-18T12:22:46.243Z,281.71
2018-12-18T12:23:46.230Z,281.50
2018-12-18T12:24:46.216Z,281.48
2018-12-18T12:25:46.219Z,281.51
2018-12-18T12:26:46.226Z,281.19
2018-12-18T12:27:46.202Z,281.44
2018-12-18T12:28:46.198Z,281.60